createdAt,value
2022-12-03T00:01:48.418Z,4.10
2022-12-03T00:04:16.734Z,4.07
2022-12-03T00:06:45.737Z,4.80
2022-12-03T00:09:14.267Z,4.78
2022-12-03T00:11:42.538Z,4.90
2022-12-03T00:14:11.635Z,3.78
2022-12-03T00:16:41.364Z,3.97
2022-12-03T00:19:09.595Z,4.55
2022-12-03T00:21:38.873Z,4.40
2022-12-03T00:24:07.862Z,2.90
2022-12-03T00:26:36.095Z,3.92
2022-12-03T00:29:05.557Z,4.55
2022-12-03T00:31:33.816Z,3.90
2022-12-03T00:34:03.646Z,3.53
2022-12-03T00:36:32.052Z,2.72
2022-12-03T00:39:00.346Z,2.10
2022-12-03T00:41:28.680Z,2.80
2022-12-03T00:43:57.876Z,3.25
2022-12-03T00:46:26.283Z,2.80
2022-12-03T00:48:54.685Z,3.20
2022-12-03T00:51:25.060Z,2.92
2022-12-03T00:53:53.308Z,2.92
2022-12-03T00:56:21.602Z,2.92
2022-12-03T00:58:51.559Z,2.42
2022-12-03T01:01:20.063Z,2.92
2022-12-03T01:03:48.390Z,2.47
2022-12-03T01:06:16.620Z,3.20
2022-12-03T01:08:46.241Z,3.15
2022-12-03T01:11:28.334Z,3.67
2022-12-03T01:13:56.604Z,3.20
2022-12-03T01:16:24.991Z,3.03
2022-12-03T01:18:53.895Z,3.15
2022-12-03T01:21:22.182Z,2.42
2022-12-03T01:23:52.125Z,3.17
2022-12-03T01:26:20.405Z,2.63
2022-12-03T01:28:49.278Z,3.25
2022-12-03T01:31:35.182Z,2.65
2022-12-03T01:34:03.477Z,3.65
2022-12-03T01:36:34.342Z,3.20
2022-12-03T01:39:05.724Z,2.67
2022-12-03T01:41:35.412Z,2.78
2022-12-03T01:44:05.816Z,3.55
2022-12-03T01:46:40.358Z,2.58
2022-12-03T01:49:15.872Z,2.75
2022-12-03T01:51:44.453Z,2.95
2022-12-03T01:54:19.379Z,2.40
2022-12-03T01:56:49.344Z,1.90
2022-12-03T01:59:18.448Z,2.70
2022-12-03T02:01:47.464Z,3.03
2022-12-03T02:04:18.371Z,1.65
2022-12-03T02:06:46.773Z,2.10
2022-12-03T02:09:16.655Z,1.83
2022-12-03T02:11:48.151Z,2.10
2022-12-03T02:14:21.737Z,2.03
2022-12-03T02:16:50.354Z,2.05
2022-12-03T02:19:25.526Z,1.60
2022-12-03T02:22:02.016Z,2.00
2022-12-03T02:24:43.637Z,2.08
2022-12-03T02:27:13.797Z,2.53
2022-12-03T02:29:42.211Z,1.70
2022-12-03T02:32:10.736Z,1.13
2022-12-03T02:34:41.144Z,2.00
2022-12-03T02:37:13.082Z,1.63
2022-12-03T02:39:45.432Z,2.10
2022-12-03T02:42:33.075Z,2.30
2022-12-03T02:45:05.461Z,1.65
2022-12-03T02:47:36.064Z,2.45
2022-12-03T02:50:05.966Z,2.78
2022-12-03T02:52:34.298Z,2.15
2022-12-03T02:55:04.048Z,1.73
2022-12-03T02:57:34.051Z,1.92
2022-12-03T03:00:02.562Z,2.17
2022-12-03T03:02:30.865Z,2.22
2022-12-03T03:04:59.889Z,1.67
2022-12-03T03:07:28.236Z,2.38
2022-12-03T03:09:57.460Z,3.08
2022-12-03T03:12:25.762Z,1.60
2022-12-03T03:14:56.294Z,2.35
2022-12-03T03:17:25.493Z,2.15
2022-12-03T03:19:53.867Z,2.33
2022-12-03T03:22:22.095Z,2.45
2022-12-03T03:24:50.581Z,2.03
2022-12-03T03:27:19.240Z,2.00
2022-12-03T03:29:47.610Z,1.33
2022-12-03T03:32:17.440Z,1.23
2022-12-03T03:34:45.813Z,1.20
2022-12-03T03:37:14.024Z,1.67
2022-12-03T03:39:42.313Z,0.80
2022-12-03T03:42:10.754Z,1.13
2022-12-03T03:44:39.212Z,0.85
2022-12-03T03:47:07.940Z,1.08
2022-12-03T03:49:38.081Z,0.98
2022-12-03T03:52:06.733Z,1.00
2022-12-03T03:54:35.149Z,1.10
2022-12-03T03:57:03.521Z,0.85
2022-12-03T03:59:31.870Z,1.13
2022-12-03T04:02:00.172Z,0.98
2022-12-03T04:04:32.794Z,1.48
2022-12-03T04:07:02.624Z,1.35
2022-12-03T04:09:30.908Z,1.60
2022-12-03T04:12:16.640Z,1.52
2022-12-03T04:14:44.861Z,1.08
2022-12-03T04:17:13.072Z,1.65
2022-12-03T04:19:41.371Z,1.00
2022-12-03T04:22:27.442Z,2.22
2022-12-03T04:25:16.386Z,1.42
2022-12-03T04:28:02.336Z,12.77
2022-12-03T04:30:30.829Z,11.02
2022-12-03T04:33:16.917Z,3.60
2022-12-03T04:35:45.541Z,13.90
2022-12-03T04:38:17.067Z,16.17
2022-12-03T04:41:01.710Z,11.32
2022-12-03T04:43:30.470Z,8.57
2022-12-03T04:45:58.928Z,8.85
2022-12-03T04:48:27.785Z,3.85
2022-12-03T04:50:55.959Z,3.78
2022-12-03T04:53:25.612Z,4.03
2022-12-03T04:55:53.854Z,7.55
2022-12-03T04:58:22.934Z,5.38
2022-12-03T05:00:51.449Z,3.13
2022-12-03T05:03:19.723Z,2.55
2022-12-03T05:05:48.132Z,7.03
2022-12-03T05:08:16.431Z,4.22
2022-12-03T05:10:46.394Z,2.15
2022-12-03T05:13:14.878Z,6.40
2022-12-03T05:15:43.104Z,5.28
2022-12-03T05:18:11.407Z,10.82
2022-12-03T05:20:52.760Z,4.82
2022-12-03T05:23:22.138Z,9.50
2022-12-03T05:25:51.781Z,13.10
2022-12-03T05:28:22.240Z,13.85
2022-12-03T05:30:51.081Z,7.18
2022-12-03T05:33:20.588Z,21.67
2022-12-03T05:35:49.229Z,22.27
2022-12-03T05:38:17.723Z,11.32
2022-12-03T05:40:46.183Z,29.98
2022-12-03T05:43:15.057Z,20.00
2022-12-03T05:45:44.811Z,10.57
2022-12-03T05:48:15.558Z,7.40
2022-12-03T05:50:45.620Z,10.02
2022-12-03T05:53:18.220Z,6.47
2022-12-03T05:55:47.059Z,17.40
2022-12-03T05:58:16.961Z,12.55
2022-12-03T06:00:45.449Z,6.07
2022-12-03T06:03:13.747Z,8.75
2022-12-03T06:05:42.381Z,8.43
2022-12-03T06:08:10.691Z,7.75
2022-12-03T06:10:39.188Z,5.57
2022-12-03T06:13:07.422Z,4.45
2022-12-03T06:15:43.330Z,4.93
2022-12-03T06:18:12.151Z,3.78
2022-12-03T06:20:40.437Z,5.75
2022-12-03T06:23:08.725Z,4.45
2022-12-03T06:25:36.950Z,3.95
2022-12-03T06:28:07.520Z,5.05
2022-12-03T06:30:37.189Z,4.57
2022-12-03T06:33:05.485Z,5.43
2022-12-03T06:35:33.705Z,5.75
2022-12-03T06:38:02.036Z,7.70
2022-12-03T06:40:30.257Z,5.63
2022-12-03T06:42:58.576Z,5.32
2022-12-03T06:45:26.852Z,5.38
2022-12-03T06:47:56.692Z,5.38
2022-12-03T06:50:25.232Z,5.13
2022-12-03T06:52:53.559Z,6.35
2022-12-03T06:55:23.105Z,7.25
2022-12-03T06:57:51.702Z,3.58
2022-12-03T07:00:20.999Z,4.53
2022-12-03T07:02:49.536Z,6.55
2022-12-03T07:05:20.089Z,6.78
2022-12-03T07:07:52.075Z,6.47
2022-12-03T07:10:20.985Z,7.60
2022-12-03T07:12:49.257Z,6.43
2022-12-03T07:15:18.021Z,5.55
2022-12-03T07:17:46.342Z,4.82
2022-12-03T07:20:18.325Z,5.13
2022-12-03T07:22:46.885Z,4.95
2022-12-03T07:25:19.657Z,5.07
2022-12-03T07:27:51.344Z,4.80
2022-12-03T07:30:19.967Z,3.97
2022-12-03T07:32:48.217Z,4.15
2022-12-03T07:35:16.640Z,5.25
2022-12-03T07:37:46.805Z,4.68
2022-12-03T07:40:15.592Z,3.67
2022-12-03T07:42:44.141Z,4.20
2022-12-03T07:45:12.783Z,7.20
2022-12-03T07:47:41.250Z,6.07
2022-12-03T07:50:11.250Z,5.13
2022-12-03T07:52:39.867Z,3.65
2022-12-03T07:55:11.814Z,3.67
2022-12-03T07:57:40.494Z,4.15
2022-12-03T08:00:09.646Z,3.92
2022-12-03T08:02:37.930Z,4.28
2022-12-03T08:05:07.409Z,3.88
2022-12-03T08:07:36.278Z,3.88
2022-12-03T08:10:05.349Z,3.20
2022-12-03T08:12:42.951Z,3.15
2022-12-03T08:15:13.709Z,4.70
2022-12-03T08:17:43.497Z,4.13
2022-12-03T08:20:17.072Z,4.20
2022-12-03T08:22:47.747Z,9.07
2022-12-03T08:25:21.768Z,5.70
2022-12-03T08:27:52.751Z,5.85
2022-12-03T08:30:21.285Z,6.07
2022-12-03T08:32:50.129Z,5.57
2022-12-03T08:35:23.887Z,5.18
2022-12-03T08:37:58.861Z,4.72
2022-12-03T08:40:35.960Z,4.35
2022-12-03T08:43:18.672Z,4.50
2022-12-03T08:45:47.302Z,4.22
2022-12-03T08:48:33.924Z,3.85
2022-12-03T08:51:07.549Z,4.13
2022-12-03T08:53:37.954Z,4.35
2022-12-03T08:56:20.548Z,3.33
2022-12-03T08:58:52.984Z,5.82
2022-12-03T09:04:16.398Z,3.35
2022-12-03T09:06:45.957Z,3.55
2022-12-03T09:09:14.218Z,3.35
2022-12-03T09:11:43.563Z,4.10
2022-12-03T09:14:18.500Z,4.30
2022-12-03T09:16:48.013Z,4.22
2022-12-03T09:19:16.818Z,3.72
2022-12-03T09:21:45.695Z,3.60
2022-12-03T09:24:14.233Z,3.45
2022-12-03T09:26:42.637Z,3.80
2022-12-03T09:29:12.927Z,4.68
2022-12-03T09:31:41.846Z,3.95
2022-12-03T09:34:12.528Z,5.05
2022-12-03T09:36:42.452Z,3.92
2022-12-03T09:39:11.478Z,3.88
2022-12-03T09:41:40.251Z,4.28
2022-12-03T09:44:15.856Z,3.33
2022-12-03T09:46:49.002Z,3.85
2022-12-03T09:49:19.758Z,5.33
2022-12-03T09:51:49.106Z,4.22
2022-12-03T09:54:25.028Z,4.55
2022-12-03T09:56:54.648Z,3.80
2022-12-03T09:59:25.010Z,4.63
2022-12-03T10:01:56.606Z,4.63
2022-12-03T10:04:25.592Z,4.10
2022-12-03T10:06:53.950Z,4.82
2022-12-03T10:09:27.282Z,4.53
2022-12-03T10:11:56.736Z,5.63
2022-12-03T10:14:25.333Z,4.57
2022-12-03T10:16:56.653Z,7.70
2022-12-03T10:19:30.443Z,6.68
2022-12-03T10:21:59.688Z,5.18
2022-12-03T10:24:30.135Z,12.07
2022-12-03T10:27:00.909Z,7.03
2022-12-03T10:29:33.997Z,15.20
2022-12-03T10:32:06.255Z,8.23
2022-12-03T10:34:37.863Z,6.13
2022-12-03T10:37:17.760Z,4.53
2022-12-03T10:40:00.675Z,9.15
2022-12-03T10:42:31.049Z,7.82
2022-12-03T10:45:13.451Z,7.72
2022-12-03T10:47:43.937Z,8.93
2022-12-03T10:50:21.443Z,10.18
2022-12-03T10:55:45.871Z,6.03
2022-12-03T10:58:23.165Z,7.57
2022-12-03T11:01:07.438Z,8.82
2022-12-03T11:03:38.068Z,4.13
2022-12-03T11:06:06.726Z,4.13
2022-12-03T11:08:37.797Z,3.25
2022-12-03T11:11:08.861Z,5.90
2022-12-03T11:13:52.582Z,2.95
2022-12-03T11:17:10.042Z,2.75
2022-12-03T11:19:53.046Z,1.83
2022-12-03T11:22:46.790Z,3.60
2022-12-03T11:25:50.402Z,3.70
2022-12-03T11:28:37.228Z,4.70
2022-12-03T11:31:12.445Z,3.90
2022-12-03T11:33:41.648Z,5.07
2022-12-03T11:36:36.408Z,3.78
2022-12-03T11:39:10.055Z,1.98
2022-12-03T11:41:38.239Z,4.20
2022-12-03T11:44:30.424Z,3.75
2022-12-03T11:47:00.810Z,3.90
2022-12-03T11:49:38.947Z,3.95
2022-12-03T11:52:25.164Z,7.60
2022-12-03T11:54:57.753Z,4.25
2022-12-03T12:00:21.622Z,4.82
2022-12-03T12:02:51.250Z,6.53
2022-12-03T12:05:28.787Z,6.95
2022-12-03T12:07:59.444Z,4.60
2022-12-03T12:10:43.039Z,7.22
2022-12-03T12:13:52.348Z,6.03
2022-12-03T12:16:55.248Z,4.50
2022-12-03T12:19:37.665Z,6.30
2022-12-03T12:22:31.381Z,4.38
2022-12-03T12:25:02.027Z,7.80
2022-12-03T12:27:36.011Z,6.30
2022-12-03T12:30:09.839Z,7.25
2022-12-03T12:32:46.011Z,8.07
2022-12-03T12:35:18.528Z,8.30
2022-12-03T12:40:31.120Z,8.32
2022-12-03T12:43:05.332Z,13.27
2022-12-03T12:45:37.238Z,17.20
2022-12-03T12:48:16.762Z,14.83
2022-12-03T12:50:46.512Z,9.88
2022-12-03T12:53:21.648Z,13.07
2022-12-03T12:55:56.532Z,10.95
2022-12-03T12:58:25.246Z,7.43
2022-12-03T13:00:55.321Z,10.93
2022-12-03T13:03:26.151Z,10.30
2022-12-03T13:05:55.458Z,11.15
2022-12-03T13:08:27.411Z,6.43
2022-12-03T13:10:58.962Z,7.97
2022-12-03T13:13:44.028Z,9.63
2022-12-03T13:16:19.035Z,8.75
2022-12-03T13:18:49.321Z,9.32
2022-12-03T13:21:39.257Z,9.57
2022-12-03T13:24:28.222Z,10.32
2022-12-03T13:26:58.367Z,7.43
2022-12-03T13:29:28.364Z,9.48
2022-12-03T13:31:59.979Z,9.05
2022-12-03T13:34:29.999Z,9.63
2022-12-03T13:36:58.898Z,9.68
2022-12-03T13:39:33.475Z,8.60
2022-12-03T13:42:38.063Z,9.40
2022-12-03T13:45:31.978Z,8.00
2022-12-03T13:48:02.183Z,8.25
2022-12-03T13:50:35.602Z,8.68
2022-12-03T13:53:08.547Z,7.40
2022-12-03T13:55:39.828Z,8.20
2022-12-03T13:58:09.976Z,7.40
2022-12-03T14:00:38.509Z,10.57
2022-12-03T14:03:08.420Z,12.85
2022-12-03T14:05:36.856Z,12.70
2022-12-03T14:08:06.270Z,6.90
2022-12-03T14:10:35.124Z,8.30
2022-12-03T14:13:03.370Z,8.65
2022-12-03T14:15:33.367Z,8.60
2022-12-03T14:18:02.427Z,11.18
2022-12-03T14:20:30.676Z,10.40
2022-12-03T14:22:59.655Z,13.02
2022-12-03T14:25:28.117Z,5.43
2022-12-03T14:27:56.462Z,10.40
2022-12-03T14:30:24.980Z,9.15
2022-12-03T14:32:55.432Z,8.88
2022-12-03T14:35:23.795Z,9.25
2022-12-03T14:37:52.018Z,9.13
2022-12-03T14:40:22.002Z,8.75
2022-12-03T14:42:50.581Z,8.85
2022-12-03T14:45:20.409Z,6.18
2022-12-03T14:47:49.228Z,7.88
2022-12-03T14:50:19.043Z,4.40
2022-12-03T14:52:47.301Z,8.10
2022-12-03T14:55:15.622Z,9.70
2022-12-03T14:57:43.955Z,10.00
2022-12-03T15:00:13.488Z,11.00
2022-12-03T15:02:42.221Z,4.75
2022-12-03T15:05:11.132Z,7.43
2022-12-03T15:07:40.903Z,6.55
2022-12-03T15:10:10.011Z,7.10
2022-12-03T15:12:38.349Z,7.82
2022-12-03T15:15:07.545Z,6.03
2022-12-03T15:17:35.969Z,7.38
2022-12-03T15:20:04.963Z,9.32
2022-12-03T15:22:33.360Z,3.65
2022-12-03T15:25:03.613Z,9.25
2022-12-03T15:27:31.925Z,7.18
2022-12-03T15:30:00.310Z,7.07
2022-12-03T15:32:28.662Z,6.43
2022-12-03T15:34:57.229Z,5.88
2022-12-03T15:37:27.717Z,5.97
2022-12-03T15:39:56.416Z,9.30
2022-12-03T15:42:28.191Z,6.38
2022-12-03T15:44:57.737Z,6.65
2022-12-03T15:47:26.384Z,5.75
2022-12-03T15:49:54.854Z,7.15
2022-12-03T15:52:23.574Z,7.72
2022-12-03T15:54:52.139Z,4.72
2022-12-03T15:57:20.937Z,6.00
2022-12-03T15:59:51.063Z,7.05
2022-12-03T16:02:19.615Z,7.68
2022-12-03T16:04:48.385Z,8.68
2022-12-03T16:07:16.940Z,8.30
2022-12-03T16:09:45.277Z,7.75
2022-12-03T16:12:13.543Z,4.78
2022-12-03T16:14:41.795Z,8.18
2022-12-03T16:17:11.549Z,8.98
2022-12-03T16:19:39.793Z,5.70
2022-12-03T16:22:08.122Z,7.95
2022-12-03T16:24:36.507Z,7.32
2022-12-03T16:27:05.070Z,6.90
2022-12-03T16:29:33.367Z,8.05
2022-12-03T16:32:01.774Z,4.95
2022-12-03T16:34:31.475Z,7.93
2022-12-03T16:37:00.160Z,7.55
2022-12-03T16:39:28.541Z,8.93
2022-12-03T16:41:56.822Z,6.18
2022-12-03T16:44:32.843Z,6.78
2022-12-03T16:47:01.641Z,7.70
2022-12-03T16:49:31.357Z,8.68
2022-12-03T16:51:59.668Z,6.90
2022-12-03T16:54:28.147Z,6.85
2022-12-03T16:56:56.487Z,5.03
2022-12-03T16:59:24.812Z,5.30
2022-12-03T17:01:53.157Z,7.05
2022-12-03T17:04:21.528Z,7.65
2022-12-03T17:06:51.375Z,5.13
2022-12-03T17:09:19.693Z,4.20
2022-12-03T17:11:48.231Z,4.95
2022-12-03T17:14:16.659Z,7.68
2022-12-03T17:16:45.129Z,3.20
2022-12-03T17:19:13.415Z,5.47
2022-12-03T17:21:41.774Z,6.47
2022-12-03T17:24:12.760Z,6.88
2022-12-03T17:26:42.201Z,7.03
2022-12-03T17:29:10.531Z,7.25
2022-12-03T17:31:42.152Z,6.78
2022-12-03T17:34:10.996Z,6.72
2022-12-03T17:36:39.407Z,7.28
2022-12-03T17:39:07.720Z,6.28
2022-12-03T17:41:37.508Z,7.60
2022-12-03T17:44:10.160Z,4.68
2022-12-03T17:46:39.809Z,8.60
2022-12-03T17:49:08.232Z,6.45
2022-12-03T17:51:36.519Z,6.68
2022-12-03T17:54:04.997Z,8.43
2022-12-03T17:56:33.846Z,4.10
2022-12-03T17:59:03.515Z,10.18
2022-12-03T18:01:32.359Z,6.70
2022-12-03T18:04:00.767Z,7.93
2022-12-03T18:06:29.170Z,6.63
2022-12-03T18:08:57.587Z,5.68
2022-12-03T18:11:26.463Z,5.78
2022-12-03T18:13:56.017Z,8.07
2022-12-03T18:16:26.121Z,7.32
2022-12-03T18:18:57.080Z,7.13
2022-12-03T18:21:28.316Z,4.57
2022-12-03T18:23:56.902Z,5.00
2022-12-03T18:26:26.051Z,5.93
2022-12-03T18:28:54.664Z,7.78
2022-12-03T18:31:23.782Z,8.23
2022-12-03T18:33:53.851Z,7.07
2022-12-03T18:36:24.673Z,7.65
2022-12-03T18:38:55.523Z,8.23
2022-12-03T18:41:25.333Z,8.30
2022-12-03T18:43:53.674Z,7.38
2022-12-03T18:46:51.950Z,6.38
2022-12-03T18:49:12.791Z,3.92
2022-12-03T18:51:41.136Z,5.13
2022-12-03T18:54:13.538Z,8.38
2022-12-03T18:56:43.085Z,7.30
2022-12-03T18:59:12.357Z,4.07
2022-12-03T19:01:40.751Z,6.80
2022-12-03T19:04:12.298Z,5.15
2022-12-03T19:06:40.837Z,7.10
2022-12-03T19:09:09.211Z,6.85
2022-12-03T19:11:37.509Z,7.07
2022-12-03T19:14:05.770Z,5.63
2022-12-03T19:16:37.101Z,4.93
2022-12-03T19:19:05.456Z,4.20
2022-12-03T19:21:35.192Z,7.68
2022-12-03T19:24:23.663Z,5.78
2022-12-03T19:26:55.728Z,7.72
2022-12-03T19:29:24.357Z,6.03
2022-12-03T19:31:53.419Z,7.72
2022-12-03T19:34:21.845Z,7.50
2022-12-03T19:36:51.558Z,5.20
2022-12-03T19:39:19.988Z,4.72
2022-12-03T19:41:48.340Z,5.70
2022-12-03T19:44:18.138Z,9.77
2022-12-03T19:46:46.778Z,4.82
2022-12-03T19:49:17.651Z,5.85
2022-12-03T19:51:46.059Z,6.70
2022-12-03T19:54:16.531Z,6.30
2022-12-03T19:56:45.689Z,10.38
2022-12-03T19:59:14.911Z,5.47
2022-12-03T20:01:43.661Z,6.15
2022-12-03T20:04:12.980Z,4.20
2022-12-03T20:06:41.423Z,8.07
2022-12-03T20:09:12.434Z,6.53
2022-12-03T20:11:44.637Z,9.38
2022-12-03T20:14:15.894Z,7.55
2022-12-03T20:16:44.417Z,8.15
2022-12-03T20:19:18.258Z,7.80
2022-12-03T20:21:46.991Z,9.05
2022-12-03T20:24:17.392Z,7.97
2022-12-03T20:26:47.313Z,8.52
2022-12-03T20:29:15.658Z,7.38
2022-12-03T20:31:44.051Z,6.80
2022-12-03T20:34:12.888Z,6.32
2022-12-03T20:36:41.163Z,5.55
2022-12-03T20:39:09.639Z,6.78
2022-12-03T20:41:39.016Z,4.75
2022-12-03T20:44:10.565Z,4.93
2022-12-03T20:46:39.042Z,8.90
2022-12-03T20:49:07.407Z,5.82
2022-12-03T20:51:36.571Z,10.05
2022-12-03T20:54:05.375Z,9.75
2022-12-03T20:56:35.773Z,6.40
2022-12-03T20:59:06.175Z,6.68
2022-12-03T21:01:36.574Z,7.80
2022-12-03T21:04:06.868Z,8.20
2022-12-03T21:06:37.036Z,7.00
2022-12-03T21:09:06.948Z,9.80
2022-12-03T21:11:36.225Z,6.75
2022-12-03T21:14:05.378Z,8.00
2022-12-03T21:17:07.212Z,10.13
2022-12-03T21:19:27.899Z,6.60
2022-12-03T21:21:56.206Z,5.18
2022-12-03T21:24:24.581Z,4.22
2022-12-03T21:26:53.010Z,8.07
2022-12-03T21:29:21.301Z,7.55
2022-12-03T21:31:51.282Z,8.80
2022-12-03T21:34:19.467Z,3.03
2022-12-03T21:36:47.821Z,7.50
2022-12-03T21:39:16.332Z,5.05
2022-12-03T21:42:33.994Z,6.85
2022-12-03T21:44:33.139Z,7.32
2022-12-03T21:47:09.509Z,8.70
2022-12-03T21:49:41.271Z,7.18
2022-12-03T21:52:09.520Z,8.10
2022-12-03T21:54:37.741Z,5.57
2022-12-03T21:57:05.992Z,6.75
2022-12-03T21:59:34.384Z,9.00
2022-12-03T22:02:04.944Z,6.50
2022-12-03T22:04:33.432Z,5.97
2022-12-03T22:07:01.626Z,4.22
2022-12-03T22:09:29.935Z,8.38
2022-12-03T22:12:00.777Z,6.88
2022-12-03T22:14:29.237Z,7.40
2022-12-03T22:16:57.530Z,7.40
2022-12-03T22:19:27.716Z,8.50
2022-12-03T22:21:55.981Z,8.77
2022-12-03T22:24:24.341Z,5.15
2022-12-03T22:26:55.433Z,8.00
2022-12-03T22:29:23.632Z,6.60
2022-12-03T22:31:51.856Z,5.07
2022-12-03T22:34:20.129Z,3.28
2022-12-03T22:36:49.757Z,4.25
2022-12-03T22:39:17.994Z,4.90
2022-12-03T22:41:46.222Z,6.78
2022-12-03T22:44:14.772Z,6.45
2022-12-03T22:46:43.050Z,5.70
2022-12-03T22:49:13.465Z,6.85
2022-12-03T22:51:41.857Z,4.10
2022-12-03T22:54:13.051Z,4.03
2022-12-03T22:56:41.838Z,4.93
2022-12-03T22:59:10.099Z,4.82
2022-12-03T23:01:40.319Z,7.97
2022-12-03T23:04:09.812Z,3.78
2022-12-03T23:06:38.604Z,3.88
2022-12-03T23:09:08.331Z,4.63
2022-12-03T23:11:38.318Z,4.88
2022-12-03T23:14:06.826Z,5.38
2022-12-03T23:16:35.196Z,3.35
2022-12-03T23:19:04.146Z,5.47
2022-12-03T23:21:34.347Z,4.78
2022-12-03T23:24:04.409Z,6.15
2022-12-03T23:26:37.731Z,4.65
2022-12-03T23:29:08.702Z,2.65
2022-12-03T23:31:37.443Z,5.93
2022-12-03T23:34:06.478Z,3.28
2022-12-03T23:36:35.388Z,5.15
2022-12-03T23:39:04.397Z,4.95
2022-12-03T23:41:32.931Z,5.55
2022-12-03T23:44:02.816Z,6.03
2022-12-03T23:46:31.348Z,2.35
2022-12-03T23:49:00.691Z,3.95
2022-12-03T23:51:28.970Z,5.93
2022-12-03T23:53:58.176Z,7.82
2022-12-03T23:56:29.283Z,5.55
2022-12-03T23:58:58.457Z,7.63
